Detroit, MI

2:25 AM EDT on May 29, 2015 (GMT -0400)
University | | Change Station
CLOSE
Current Station
Personal Weather Station
Location: Windsor, ONTARIO
Elevation: 607 ft
Nearby Weather Stations

Elev 607 ft 42.31 °N, 83.06 °W | Updated 10 minutes ago

Partly Cloudy
Partly Cloudy
62.4 °F
Feels Like 62.4 °F
N
0.0
Wind Variable Wind from ESE

Today
High -- | Low -- °F
--% Chance of Precip.
Yesterday
High -- | Low -- °F
Precip. -- in
5:59 AM 8:59 PM
Waxing Gibbous, 81% visible
Pressure 30.18 in
Visibility 10.0 miles
Clouds Clear
Dew Point 52 °F
Humidity 68%
Rainfall 0.00 in
Snow Depth Not available.
UV 0 out of 12
Pollen 6.90 out of 12
Air Quality Not available.
Flu Activity Sporadic
METAR KDET 290553Z 13007KT 10SM CLR 17/09 A3019 RMK AO2 SLP219 T01670094 10222 20167 58011 $

More Conditions Fewer Conditions

Pressure 30.18 in
Visibility 10.0 miles
Clouds Clear
Dew Point 52 °F
Humidity 68%
Rainfall 0.00 in
Snow Depth Not available.
UV 0 out of 12
Pollen 6.90 out of 12
Air Quality Not available.
Flu Activity Sporadic
METAR KDET 290553Z 13007KT 10SM CLR 17/09 A3019 RMK AO2 SLP219 T01670094 10222 20167 58011 $

More Conditions Fewer Conditions

10-Day Weather Forecast

Almanac

Astronomy

May. 29, 2015 Rise Set
Actual Time
Civil Twilight
Nautical Twilight
Astronomical Twilight
Moon
Length of Visible Light
Length of Day
Tomorrow will be .
, % of the Moon is Illuminated

Today's Extremes

State Highs State Lows

Community

WunderPhotos

Upload Photos

1,825,215 photos uploaded!

WunderBlogs® & News

Nearby

Air Quality

  Air Quality AQ Index Pollutant
Not available.

Snow Depth

Station Depth Elevation

Earthquake Activity

City Distance Mag. Time & Date
Minimum magnitude displayed is 2.5.

Coastal Water Temperatures

Place Temperature

Stations

Nearby Weather Stations

Station Location Temp. Windchill Dew Point Humidity Wind Precip. Elev Updated Type